sensor_id;sensor_type;location;lat;lon;timestamp;pressure;altitude;pressure_sealevel;temperature;humidity
4981;BME280;2507;50.392;7.482;2022-12-18T00:01:31;102261.84;;;-5.53;70.15
4981;BME280;2507;50.392;7.482;2022-12-18T00:03:58;102260.66;;;-5.67;70.62
4981;BME280;2507;50.392;7.482;2022-12-18T00:06:26;102265.06;;;-5.60;70.74
4981;BME280;2507;50.392;7.482;2022-12-18T00:08:52;102272.09;;;-5.51;70.92
4981;BME280;2507;50.392;7.482;2022-12-18T00:11:20;102263.38;;;-5.59;71.49
4981;BME280;2507;50.392;7.482;2022-12-18T00:13:45;102260.25;;;-5.46;71.15
4981;BME280;2507;50.392;7.482;2022-12-18T00:16:13;102250.72;;;-5.55;70.78
4981;BME280;2507;50.392;7.482;2022-12-18T00:18:39;102250.91;;;-5.46;70.74
4981;BME280;2507;50.392;7.482;2022-12-18T00:21:07;102260.59;;;-5.31;69.93
4981;BME280;2507;50.392;7.482;2022-12-18T00:23:33;102267.41;;;-5.30;69.87
4981;BME280;2507;50.392;7.482;2022-12-18T00:26:00;102266.69;;;-5.65;69.15
4981;BME280;2507;50.392;7.482;2022-12-18T00:28:26;102261.34;;;-5.75;69.94
4981;BME280;2507;50.392;7.482;2022-12-18T00:33:30;102266.34;;;-5.40;69.02
4981;BME280;2507;50.392;7.482;2022-12-18T00:36:03;102266.44;;;-5.37;69.17
4981;BME280;2507;50.392;7.482;2022-12-18T00:38:29;102268.09;;;-5.39;69.12
4981;BME280;2507;50.392;7.482;2022-12-18T00:40:55;102270.25;;;-5.97;70.37
4981;BME280;2507;50.392;7.482;2022-12-18T00:43:20;102258.03;;;-6.10;70.87
4981;BME280;2507;50.392;7.482;2022-12-18T00:45:45;102246.31;;;-6.02;71.43
4981;BME280;2507;50.392;7.482;2022-12-18T00:48:11;102265.03;;;-6.37;71.33
4981;BME280;2507;50.392;7.482;2022-12-18T00:50:36;102263.31;;;-6.71;72.88
4981;BME280;2507;50.392;7.482;2022-12-18T00:53:01;102256.47;;;-6.73;74.04
4981;BME280;2507;50.392;7.482;2022-12-18T00:55:26;102274.22;;;-6.76;74.18
4981;BME280;2507;50.392;7.482;2022-12-18T00:57:52;102278.34;;;-6.49;74.20
4981;BME280;2507;50.392;7.482;2022-12-18T01:00:17;102292.09;;;-6.44;73.03
4981;BME280;2507;50.392;7.482;2022-12-18T01:02:43;102303.31;;;-6.70;73.69
4981;BME280;2507;50.392;7.482;2022-12-18T01:05:11;102271.81;;;-6.70;73.91
4981;BME280;2507;50.392;7.482;2022-12-18T01:07:37;102267.00;;;-6.60;73.77
4981;BME280;2507;50.392;7.482;2022-12-18T01:10:03;102265.47;;;-6.53;73.87
4981;BME280;2507;50.392;7.482;2022-12-18T01:12:29;102284.25;;;-6.51;73.70
4981;BME280;2507;50.392;7.482;2022-12-18T01:14:54;102270.25;;;-6.65;73.71
4981;BME280;2507;50.392;7.482;2022-12-18T01:17:21;102281.88;;;-6.76;73.98
4981;BME280;2507;50.392;7.482;2022-12-18T01:19:46;102285.97;;;-6.50;74.28
4981;BME280;2507;50.392;7.482;2022-12-18T01:22:12;102285.47;;;-6.36;72.73
4981;BME280;2507;50.392;7.482;2022-12-18T01:24:37;102272.75;;;-6.34;72.40
4981;BME280;2507;50.392;7.482;2022-12-18T01:27:02;102276.28;;;-6.62;72.07
4981;BME280;2507;50.392;7.482;2022-12-18T01:29:27;102269.88;;;-6.80;72.83
4981;BME280;2507;50.392;7.482;2022-12-18T01:31:55;102273.97;;;-6.85;72.16
4981;BME280;2507;50.392;7.482;2022-12-18T01:34:22;102277.03;;;-6.98;72.65
4981;BME280;2507;50.392;7.482;2022-12-18T01:36:47;102271.56;;;-7.12;72.62
4981;BME280;2507;50.392;7.482;2022-12-18T01:39:14;102268.38;;;-7.35;71.96
4981;BME280;2507;50.392;7.482;2022-12-18T01:41:40;102285.63;;;-7.54;71.86
4981;BME280;2507;50.392;7.482;2022-12-18T01:47:21;102282.41;;;-7.77;72.30
4981;BME280;2507;50.392;7.482;2022-12-18T01:49:49;102283.59;;;-7.66;72.68
4981;BME280;2507;50.392;7.482;2022-12-18T01:52:15;102278.00;;;-7.53;71.87
4981;BME280;2507;50.392;7.482;2022-12-18T01:54:41;102280.53;;;-7.24;71.22
4981;BME280;2507;50.392;7.482;2022-12-18T01:57:07;102285.97;;;-7.44;70.32
4981;BME280;2507;50.392;7.482;2022-12-18T01:59:33;102283.19;;;-7.51;71.08
4981;BME280;2507;50.392;7.482;2022-12-18T02:02:01;102291.06;;;-7.44;70.27
4981;BME280;2507;50.392;7.482;2022-12-18T02:04:27;102286.16;;;-7.66;70.70
4981;BME280;2507;50.392;7.482;2022-12-18T02:07:07;102279.38;;;-7.92;71.23
4981;BME280;2507;50.392;7.482;2022-12-18T02:09:48;102286.97;;;-7.93;71.70
4981;BME280;2507;50.392;7.482;2022-12-18T02:12:21;102266.56;;;-7.95;72.07
4981;BME280;2507;50.392;7.482;2022-12-18T02:14:55;102264.66;;;-8.02;72.41
4981;BME280;2507;50.392;7.482;2022-12-18T02:23:28;102299.31;;;-7.79;73.21
4981;BME280;2507;50.392;7.482;2022-12-18T02:26:15;102272.16;;;-7.50;72.86
4981;BME280;2507;50.392;7.482;2022-12-18T02:29:02;102266.72;;;-7.33;72.91
4981;BME280;2507;50.392;7.482;2022-12-18T02:31:35;102265.25;;;-7.24;73.47
4981;BME280;2507;50.392;7.482;2022-12-18T02:34:04;102265.44;;;-7.18;73.23
4981;BME280;2507;50.392;7.482;2022-12-18T02:36:32;102267.16;;;-7.17;73.47
4981;BME280;2507;50.392;7.482;2022-12-18T02:38:59;102269.44;;;-6.97;73.47
4981;BME280;2507;50.392;7.482;2022-12-18T02:41:26;102266.25;;;-6.88;72.78
4981;BME280;2507;50.392;7.482;2022-12-18T02:43:55;102257.41;;;-6.70;72.67
4981;BME280;2507;50.392;7.482;2022-12-18T02:46:32;102256.72;;;-6.63;72.58
4981;BME280;2507;50.392;7.482;2022-12-18T02:49:21;102274.16;;;-6.45;72.05
4981;BME280;2507;50.392;7.482;2022-12-18T02:52:10;102250.63;;;-6.35;71.82
4981;BME280;2507;50.392;7.482;2022-12-18T02:54:52;102261.69;;;-6.35;71.24
4981;BME280;2507;50.392;7.482;2022-12-18T03:00:58;102264.31;;;-6.97;70.84
4981;BME280;2507;50.392;7.482;2022-12-18T03:03:47;102256.50;;;-7.03;72.29
4981;BME280;2507;50.392;7.482;2022-12-18T03:06:26;102263.31;;;-6.71;72.63
4981;BME280;2507;50.392;7.482;2022-12-18T03:08:58;102255.28;;;-6.86;71.46
4981;BME280;2507;50.392;7.482;2022-12-18T03:11:25;102262.81;;;-6.89;72.09
4981;BME280;2507;50.392;7.482;2022-12-18T03:14:12;102264.31;;;-6.97;71.93
4981;BME280;2507;50.392;7.482;2022-12-18T03:16:40;102255.31;;;-7.15;72.55
4981;BME280;2507;50.392;7.482;2022-12-18T03:19:11;102264.13;;;-7.34;72.78
4981;BME280;2507;50.392;7.482;2022-12-18T03:21:47;102266.56;;;-7.39;72.89
4981;BME280;2507;50.392;7.482;2022-12-18T03:24:14;102259.69;;;-7.41;73.43
4981;BME280;2507;50.392;7.482;2022-12-18T03:26:43;102259.22;;;-7.28;73.23
4981;BME280;2507;50.392;7.482;2022-12-18T03:29:16;102259.84;;;-7.05;73.42
4981;BME280;2507;50.392;7.482;2022-12-18T03:31:49;102256.09;;;-7.18;72.75
4981;BME280;2507;50.392;7.482;2022-12-18T03:34:21;102246.16;;;-6.76;73.45
4981;BME280;2507;50.392;7.482;2022-12-18T03:36:48;102254.91;;;-6.99;71.75
4981;BME280;2507;50.392;7.482;2022-12-18T03:39:14;102239.88;;;-6.89;73.10
4981;BME280;2507;50.392;7.482;2022-12-18T03:41:55;102238.31;;;-6.51;72.32
4981;BME280;2507;50.392;7.482;2022-12-18T03:44:31;102264.91;;;-6.74;71.25
4981;BME280;2507;50.392;7.482;2022-12-18T03:47:26;102237.72;;;-7.06;71.48
4981;BME280;2507;50.392;7.482;2022-12-18T03:50:12;102235.50;;;-7.25;72.34
4981;BME280;2507;50.392;7.482;2022-12-18T03:52:57;102237.47;;;-7.15;72.86
4981;BME280;2507;50.392;7.482;2022-12-18T03:55:28;102237.41;;;-7.18;71.98
4981;BME280;2507;50.392;7.482;2022-12-18T03:57:57;102250.94;;;-6.88;72.64
4981;BME280;2507;50.392;7.482;2022-12-18T04:00:23;102232.13;;;-6.93;71.02
4981;BME280;2507;50.392;7.482;2022-12-18T04:02:51;102236.50;;;-7.20;70.68
4981;BME280;2507;50.392;7.482;2022-12-18T04:05:19;102235.28;;;-7.33;70.72
4981;BME280;2507;50.392;7.482;2022-12-18T04:07:47;102235.31;;;-7.32;71.18
4981;BME280;2507;50.392;7.482;2022-12-18T04:10:14;102232.91;;;-7.57;70.41
4981;BME280;2507;50.392;7.482;2022-12-18T04:12:41;102224.91;;;-7.69;71.09
4981;BME280;2507;50.392;7.482;2022-12-18T04:15:08;102234.19;;;-7.71;71.73
4981;BME280;2507;50.392;7.482;2022-12-18T04:17:34;102218.63;;;-7.52;71.99
4981;BME280;2507;50.392;7.482;2022-12-18T04:20:00;102230.56;;;-7.79;70.67
4981;BME280;2507;50.392;7.482;2022-12-18T04:22:26;102224.22;;;-7.93;71.18
4981;BME280;2507;50.392;7.482;2022-12-18T04:24:52;102231.63;;;-8.00;70.89
4981;BME280;2507;50.392;7.482;2022-12-18T04:27:17;102229.41;;;-8.16;71.01
4981;BME280;2507;50.392;7.482;2022-12-18T04:29:42;102232.31;;;-8.32;71.20
4981;BME280;2507;50.392;7.482;2022-12-18T04:32:08;102231.09;;;-8.17;71.63
4981;BME280;2507;50.392;7.482;2022-12-18T04:34:33;102227.28;;;-8.03;71.67
4981;BME280;2507;50.392;7.482;2022-12-18T04:36:59;102247.28;;;-7.87;72.05
4981;BME280;2507;50.392;7.482;2022-12-18T04:39:24;102229.84;;;-7.75;71.02
4981;BME280;2507;50.392;7.482;2022-12-18T04:41:49;102233.28;;;-8.01;71.73
4981;BME280;2507;50.392;7.482;2022-12-18T04:44:15;102236.47;;;-8.08;70.78
4981;BME280;2507;50.392;7.482;2022-12-18T04:46:40;102217.00;;;-8.34;70.57
4981;BME280;2507;50.392;7.482;2022-12-18T04:49:05;102232.44;;;-8.29;71.16
4981;BME280;2507;50.392;7.482;2022-12-18T04:51:30;102238.31;;;-8.30;71.06
4981;BME280;2507;50.392;7.482;2022-12-18T04:53:56;102230.44;;;-8.38;71.08
4981;BME280;2507;50.392;7.482;2022-12-18T04:56:21;102247.69;;;-8.29;71.23
4981;BME280;2507;50.392;7.482;2022-12-18T04:58:47;102221.41;;;-8.28;70.89
4981;BME280;2507;50.392;7.482;2022-12-18T05:01:14;102223.72;;;-8.36;71.11
4981;BME280;2507;50.392;7.482;2022-12-18T05:03:40;102230.09;;;-8.49;71.17
4981;BME280;2507;50.392;7.482;2022-12-18T05:06:06;102251.22;;;-8.51;71.36
4981;BME280;2507;50.392;7.482;2022-12-18T05:08:32;102231.31;;;-8.38;71.01
4981;BME280;2507;50.392;7.482;2022-12-18T05:10:59;102225.09;;;-8.19;71.31
4981;BME280;2507;50.392;7.482;2022-12-18T05:13:24;102228.47;;;-8.20;70.46
4981;BME280;2507;50.392;7.482;2022-12-18T05:15:53;102242.75;;;-8.23;69.76
4981;BME280;2507;50.392;7.482;2022-12-18T05:18:18;102225.16;;;-8.16;69.99
4981;BME280;2507;50.392;7.482;2022-12-18T05:20:43;102223.41;;;-8.18;70.38
4981;BME280;2507;50.392;7.482;2022-12-18T05:23:09;102235.19;;;-8.22;70.10
4981;BME280;2507;50.392;7.482;2022-12-18T05:25:34;102222.25;;;-8.29;70.27
4981;BME280;2507;50.392;7.482;2022-12-18T05:27:59;102224.13;;;-8.22;70.04
4981;BME280;2507;50.392;7.482;2022-12-18T05:30:24;102216.09;;;-8.08;69.24
4981;BME280;2507;50.392;7.482;2022-12-18T05:32:50;102221.78;;;-8.16;69.27
4981;BME280;2507;50.392;7.482;2022-12-18T05:35:15;102218.41;;;-8.15;69.93
4981;BME280;2507;50.392;7.482;2022-12-18T05:37:40;102223.75;;;-8.08;70.08
4981;BME280;2507;50.392;7.482;2022-12-18T05:40:06;102215.34;;;-8.33;68.81
4981;BME280;2507;50.392;7.482;2022-12-18T05:42:31;102217.63;;;-8.41;70.18
4981;BME280;2507;50.392;7.482;2022-12-18T05:44:57;102219.38;;;-8.40;69.76
4981;BME280;2507;50.392;7.482;2022-12-18T05:47:22;102228.34;;;-8.23;70.51
4981;BME280;2507;50.392;7.482;2022-12-18T05:49:47;102222.50;;;-8.20;70.04
4981;BME280;2507;50.392;7.482;2022-12-18T05:52:13;102221.91;;;-8.12;69.94
4981;BME280;2507;50.392;7.482;2022-12-18T05:54:38;102228.19;;;-8.01;69.95
4981;BME280;2507;50.392;7.482;2022-12-18T05:57:04;102222.38;;;-7.97;69.96
4981;BME280;2507;50.392;7.482;2022-12-18T05:59:29;102222.78;;;-8.11;69.94
4981;BME280;2507;50.392;7.482;2022-12-18T06:01:55;102220.13;;;-8.14;69.51
4981;BME280;2507;50.392;7.482;2022-12-18T06:04:20;102226.19;;;-8.39;69.24
4981;BME280;2507;50.392;7.482;2022-12-18T06:06:45;102233.84;;;-8.38;69.87
4981;BME280;2507;50.392;7.482;2022-12-18T06:09:10;102227.00;;;-8.40;69.94
4981;BME280;2507;50.392;7.482;2022-12-18T06:11:37;102231.75;;;-8.22;70.49
4981;BME280;2507;50.392;7.482;2022-12-18T06:14:03;102241.53;;;-8.36;69.65
4981;BME280;2507;50.392;7.482;2022-12-18T06:16:30;102250.88;;;-8.36;69.70
4981;BME280;2507;50.392;7.482;2022-12-18T06:18:59;102251.81;;;-8.33;69.22
4981;BME280;2507;50.392;7.482;2022-12-18T06:21:26;102258.88;;;-8.23;69.28
4981;BME280;2507;50.392;7.482;2022-12-18T06:23:51;102252.91;;;-8.52;68.37
4981;BME280;2507;50.392;7.482;2022-12-18T06:26:17;102265.84;;;-8.94;68.23
4981;BME280;2507;50.392;7.482;2022-12-18T06:28:42;102268.28;;;-8.97;68.79
4981;BME280;2507;50.392;7.482;2022-12-18T06:31:08;102269.81;;;-9.26;69.82
4981;BME280;2507;50.392;7.482;2022-12-18T06:33:34;102269.25;;;-9.41;69.66
4981;BME280;2507;50.392;7.482;2022-12-18T06:36:09;102271.38;;;-9.29;69.67
4981;BME280;2507;50.392;7.482;2022-12-18T06:38:37;102274.06;;;-9.49;70.06
4981;BME280;2507;50.392;7.482;2022-12-18T06:41:11;102277.28;;;-9.53;70.61
4981;BME280;2507;50.392;7.482;2022-12-18T06:43:37;102273.63;;;-9.37;70.52
4981;BME280;2507;50.392;7.482;2022-12-18T06:46:03;102277.44;;;-9.26;70.95
4981;BME280;2507;50.392;7.482;2022-12-18T06:48:29;102311.03;;;-8.87;70.18
4981;BME280;2507;50.392;7.482;2022-12-18T06:50:54;102276.41;;;-8.59;69.64
4981;BME280;2507;50.392;7.482;2022-12-18T06:53:20;102274.00;;;-8.54;69.41
4981;BME280;2507;50.392;7.482;2022-12-18T06:55:45;102271.31;;;-8.33;69.07
4981;BME280;2507;50.392;7.482;2022-12-18T06:58:10;102264.44;;;-8.36;68.58
4981;BME280;2507;50.392;7.482;2022-12-18T07:00:36;102257.53;;;-8.40;69.07
4981;BME280;2507;50.392;7.482;2022-12-18T07:03:01;102255.63;;;-8.19;69.18
4981;BME280;2507;50.392;7.482;2022-12-18T07:05:26;102264.50;;;-8.06;68.68
4981;BME280;2507;50.392;7.482;2022-12-18T07:07:51;102254.78;;;-8.18;68.12
4981;BME280;2507;50.392;7.482;2022-12-18T07:10:17;102264.28;;;-8.41;69.48
4981;BME280;2507;50.392;7.482;2022-12-18T07:12:42;102261.78;;;-8.39;69.81
4981;BME280;2507;50.392;7.482;2022-12-18T07:15:08;102250.88;;;-8.36;70.33
4981;BME280;2507;50.392;7.482;2022-12-18T07:17:33;102250.28;;;-8.28;70.12
4981;BME280;2507;50.392;7.482;2022-12-18T07:19:58;102252.25;;;-8.18;70.90
4981;BME280;2507;50.392;7.482;2022-12-18T07:22:25;102257.81;;;-8.03;70.32
4981;BME280;2507;50.392;7.482;2022-12-18T07:24:50;102261.28;;;-8.01;70.10
4981;BME280;2507;50.392;7.482;2022-12-18T07:27:16;102264.16;;;-7.90;70.33
4981;BME280;2507;50.392;7.482;2022-12-18T07:29:41;102277.03;;;-7.86;70.73
4981;BME280;2507;50.392;7.482;2022-12-18T07:32:06;102278.00;;;-7.82;70.36
4981;BME280;2507;50.392;7.482;2022-12-18T07:34:32;102276.69;;;-7.70;70.65
4981;BME280;2507;50.392;7.482;2022-12-18T07:36:57;102283.91;;;-7.55;71.04
4981;BME280;2507;50.392;7.482;2022-12-18T07:39:23;102279.69;;;-7.55;70.69
4981;BME280;2507;50.392;7.482;2022-12-18T07:41:48;102284.28;;;-7.42;69.71
4981;BME280;2507;50.392;7.482;2022-12-18T07:44:33;102277.25;;;-7.50;69.70
4981;BME280;2507;50.392;7.482;2022-12-18T07:46:58;102270.72;;;-7.42;70.34
4981;BME280;2507;50.392;7.482;2022-12-18T07:49:24;102278.28;;;-7.14;70.00
4981;BME280;2507;50.392;7.482;2022-12-18T07:51:49;102272.84;;;-7.56;69.17
4981;BME280;2507;50.392;7.482;2022-12-18T07:54:14;102262.63;;;-7.57;69.62
4981;BME280;2507;50.392;7.482;2022-12-18T07:56:40;102259.19;;;-7.58;69.14
4981;BME280;2507;50.392;7.482;2022-12-18T07:59:05;102267.00;;;-7.80;69.84
4981;BME280;2507;50.392;7.482;2022-12-18T08:01:30;102271.72;;;-7.93;70.00
4981;BME280;2507;50.392;7.482;2022-12-18T08:03:57;102301.53;;;-8.16;70.69
4981;BME280;2507;50.392;7.482;2022-12-18T08:06:22;102272.38;;;-7.71;72.20
4981;BME280;2507;50.392;7.482;2022-12-18T08:08:48;102285.03;;;-7.16;70.58
4981;BME280;2507;50.392;7.482;2022-12-18T08:11:13;102270.38;;;-6.93;68.44
4981;BME280;2507;50.392;7.482;2022-12-18T08:13:38;102273.16;;;-7.15;66.95
4981;BME280;2507;50.392;7.482;2022-12-18T08:16:06;102274.00;;;-7.16;68.22
4981;BME280;2507;50.392;7.482;2022-12-18T08:23:35;102251.38;;;-7.92;68.46
4981;BME280;2507;50.392;7.482;2022-12-18T08:26:00;102244.88;;;-7.82;69.32
4981;BME280;2507;50.392;7.482;2022-12-18T08:28:25;102255.38;;;-8.00;68.50
4981;BME280;2507;50.392;7.482;2022-12-18T08:30:51;102246.44;;;-7.87;69.17
4981;BME280;2507;50.392;7.482;2022-12-18T08:33:17;102240.91;;;-8.01;68.53
4981;BME280;2507;50.392;7.482;2022-12-18T08:35:42;102242.59;;;-8.01;68.79
4981;BME280;2507;50.392;7.482;2022-12-18T08:38:07;102229.22;;;-8.22;69.42
4981;BME280;2507;50.392;7.482;2022-12-18T08:40:33;102228.88;;;-8.34;69.81
4981;BME280;2507;50.392;7.482;2022-12-18T08:42:58;102240.03;;;-8.31;69.42
4981;BME280;2507;50.392;7.482;2022-12-18T08:45:42;102243.81;;;-8.17;69.84
4981;BME280;2507;50.392;7.482;2022-12-18T08:48:07;102251.19;;;-7.98;70.64
4981;BME280;2507;50.392;7.482;2022-12-18T08:50:32;102233.72;;;-7.58;70.17
4981;BME280;2507;50.392;7.482;2022-12-18T08:52:58;102234.88;;;-7.47;68.80
4981;BME280;2507;50.392;7.482;2022-12-18T08:55:23;102246.34;;;-7.62;67.99
4981;BME280;2507;50.392;7.482;2022-12-18T08:57:49;102245.25;;;-7.98;68.33
4981;BME280;2507;50.392;7.482;2022-12-18T09:00:15;102241.28;;;-8.17;68.18
4981;BME280;2507;50.392;7.482;2022-12-18T09:02:40;102237.94;;;-8.14;68.71
4981;BME280;2507;50.392;7.482;2022-12-18T09:05:05;102258.81;;;-7.98;69.31
4981;BME280;2507;50.392;7.482;2022-12-18T09:07:31;102236.88;;;-7.94;68.68
4981;BME280;2507;50.392;7.482;2022-12-18T09:09:56;102265.03;;;-7.90;68.92
4981;BME280;2507;50.392;7.482;2022-12-18T09:12:21;102256.31;;;-7.70;69.03
4981;BME280;2507;50.392;7.482;2022-12-18T09:14:46;102254.59;;;-7.11;69.18
4981;BME280;2507;50.392;7.482;2022-12-18T09:17:12;102249.38;;;-7.14;67.88
4981;BME280;2507;50.392;7.482;2022-12-18T09:19:37;102255.03;;;-6.62;69.07
4981;BME280;2507;50.392;7.482;2022-12-18T09:22:02;102247.63;;;-6.53;67.92
4981;BME280;2507;50.392;7.482;2022-12-18T09:24:28;102232.53;;;-6.44;67.92
4981;BME280;2507;50.392;7.482;2022-12-18T09:26:53;102261.28;;;-6.51;67.03
4981;BME280;2507;50.392;7.482;2022-12-18T09:29:20;102241.38;;;-6.64;67.30
4981;BME280;2507;50.392;7.482;2022-12-18T09:31:47;102267.81;;;-6.93;67.64
4981;BME280;2507;50.392;7.482;2022-12-18T09:34:13;102253.16;;;-7.02;68.14
4981;BME280;2507;50.392;7.482;2022-12-18T09:36:38;102257.38;;;-7.02;68.43
4981;BME280;2507;50.392;7.482;2022-12-18T09:39:04;102263.72;;;-6.87;68.82
4981;BME280;2507;50.392;7.482;2022-12-18T09:44:23;102235.44;;;-6.63;68.89
4981;BME280;2507;50.392;7.482;2022-12-18T09:46:54;102238.97;;;-6.24;69.84
4981;BME280;2507;50.392;7.482;2022-12-18T09:49:26;102232.94;;;-5.89;69.10
4981;BME280;2507;50.392;7.482;2022-12-18T09:52:09;102226.28;;;-5.84;68.08
4981;BME280;2507;50.392;7.482;2022-12-18T09:54:39;102227.78;;;-5.52;67.83
4981;BME280;2507;50.392;7.482;2022-12-18T09:57:05;102226.25;;;-5.44;66.97
4981;BME280;2507;50.392;7.482;2022-12-18T09:59:37;102217.38;;;-5.59;66.01
4981;BME280;2507;50.392;7.482;2022-12-18T10:02:21;102243.59;;;-5.29;65.67
4981;BME280;2507;50.392;7.482;2022-12-18T10:05:18;102216.13;;;-5.38;66.31
4981;BME280;2507;50.392;7.482;2022-12-18T10:07:55;102216.84;;;-5.45;65.69
4981;BME280;2507;50.392;7.482;2022-12-18T10:16:09;102210.41;;;-5.68;66.41
4981;BME280;2507;50.392;7.482;2022-12-18T10:21:21;102201.25;;;-5.58;65.47
4981;BME280;2507;50.392;7.482;2022-12-18T10:23:56;102193.50;;;-5.60;66.49
4981;BME280;2507;50.392;7.482;2022-12-18T10:26:24;102185.53;;;-5.33;66.13
4981;BME280;2507;50.392;7.482;2022-12-18T10:28:51;102208.81;;;-5.18;66.27
4981;BME280;2507;50.392;7.482;2022-12-18T10:31:19;102181.63;;;-5.14;65.81
4981;BME280;2507;50.392;7.482;2022-12-18T10:33:44;102174.97;;;-5.03;65.32
4981;BME280;2507;50.392;7.482;2022-12-18T10:36:11;102183.97;;;-5.25;65.79
4981;BME280;2507;50.392;7.482;2022-12-18T10:38:36;102179.19;;;-5.07;66.24
4981;BME280;2507;50.392;7.482;2022-12-18T10:43:46;102176.41;;;-4.73;66.06
4981;BME280;2507;50.392;7.482;2022-12-18T10:46:14;102180.50;;;-4.29;63.30
4981;BME280;2507;50.392;7.482;2022-12-18T10:48:52;102161.47;;;-4.46;62.96
4981;BME280;2507;50.392;7.482;2022-12-18T10:51:27;102154.72;;;-4.41;63.64
4981;BME280;2507;50.392;7.482;2022-12-18T10:53:59;102151.69;;;-4.13;63.55
4981;BME280;2507;50.392;7.482;2022-12-18T10:56:27;102158.44;;;-3.53;62.03
4981;BME280;2507;50.392;7.482;2022-12-18T10:58:59;102158.78;;;-3.22;61.08
4981;BME280;2507;50.392;7.482;2022-12-18T11:01:25;102150.16;;;-3.28;59.24
4981;BME280;2507;50.392;7.482;2022-12-18T11:06:17;102153.78;;;-3.84;59.59
4981;BME280;2507;50.392;7.482;2022-12-18T11:08:56;102154.41;;;-4.02;60.13
4981;BME280;2507;50.392;7.482;2022-12-18T11:11:23;102166.38;;;-4.01;60.38
4981;BME280;2507;50.392;7.482;2022-12-18T11:14:04;102161.34;;;-3.95;61.70
4981;BME280;2507;50.392;7.482;2022-12-18T11:16:34;102164.19;;;-3.71;60.72
4981;BME280;2507;50.392;7.482;2022-12-18T11:19:20;102162.41;;;-3.76;60.20
4981;BME280;2507;50.392;7.482;2022-12-18T11:21:47;102164.16;;;-3.74;61.32
4981;BME280;2507;50.392;7.482;2022-12-18T11:24:30;102150.94;;;-3.37;60.08
4981;BME280;2507;50.392;7.482;2022-12-18T11:27:02;102144.50;;;-2.95;59.37
4981;BME280;2507;50.392;7.482;2022-12-18T11:35:15;102147.41;;;-2.53;56.31
4981;BME280;2507;50.392;7.482;2022-12-18T11:37:47;102139.56;;;-2.73;57.65
4981;BME280;2507;50.392;7.482;2022-12-18T11:40:18;102140.25;;;-2.90;57.40
4981;BME280;2507;50.392;7.482;2022-12-18T11:42:52;102140.75;;;-3.29;59.32
4981;BME280;2507;50.392;7.482;2022-12-18T11:45:33;102136.00;;;-3.71;60.15
4981;BME280;2507;50.392;7.482;2022-12-18T11:48:22;102147.66;;;-3.97;61.78
4981;BME280;2507;50.392;7.482;2022-12-18T11:50:55;102134.84;;;-3.97;62.19
4981;BME280;2507;50.392;7.482;2022-12-18T11:53:21;102128.34;;;-3.69;62.99
4981;BME280;2507;50.392;7.482;2022-12-18T12:15:10;102087.66;;;-2.19;58.24
4981;BME280;2507;50.392;7.482;2022-12-18T12:17:50;102085.19;;;-2.02;58.23
4981;BME280;2507;50.392;7.482;2022-12-18T12:23:06;102092.84;;;-2.09;58.77
4981;BME280;2507;50.392;7.482;2022-12-18T12:26:05;102091.06;;;-2.25;58.77
4981;BME280;2507;50.392;7.482;2022-12-18T12:28:52;102080.69;;;-2.40;58.98
4981;BME280;2507;50.392;7.482;2022-12-18T12:34:33;102082.16;;;-2.81;60.72
4981;BME280;2507;50.392;7.482;2022-12-18T12:39:36;102071.63;;;-3.13;62.69
4981;BME280;2507;50.392;7.482;2022-12-18T12:42:04;102060.72;;;-2.83;62.74
4981;BME280;2507;50.392;7.482;2022-12-18T12:44:55;102054.13;;;-2.48;63.05
4981;BME280;2507;50.392;7.482;2022-12-18T12:47:38;102056.69;;;-2.43;62.87
4981;BME280;2507;50.392;7.482;2022-12-18T12:50:13;102033.63;;;-2.40;62.92
4981;BME280;2507;50.392;7.482;2022-12-18T12:52:42;102020.03;;;-2.04;63.35
4981;BME280;2507;50.392;7.482;2022-12-18T12:55:19;102013.28;;;-1.60;62.80
4981;BME280;2507;50.392;7.482;2022-12-18T12:57:54;102021.03;;;-1.17;61.88
4981;BME280;2507;50.392;7.482;2022-12-18T13:00:23;102014.16;;;-1.25;61.36
4981;BME280;2507;50.392;7.482;2022-12-18T13:03:15;102018.44;;;-1.11;61.80
4981;BME280;2507;50.392;7.482;2022-12-18T13:05:58;102017.59;;;-1.07;61.76
4981;BME280;2507;50.392;7.482;2022-12-18T13:08:28;102015.00;;;-0.97;61.37
4981;BME280;2507;50.392;7.482;2022-12-18T13:10:56;102021.00;;;-0.92;62.09
4981;BME280;2507;50.392;7.482;2022-12-18T13:13:50;102027.03;;;-0.93;62.41
4981;BME280;2507;50.392;7.482;2022-12-18T13:16:19;102022.69;;;-0.64;62.09
4981;BME280;2507;50.392;7.482;2022-12-18T13:18:50;102021.84;;;-0.69;62.43
4981;BME280;2507;50.392;7.482;2022-12-18T13:21:30;102002.88;;;-0.46;61.79
4981;BME280;2507;50.392;7.482;2022-12-18T13:23:56;102005.41;;;-0.32;61.66
4981;BME280;2507;50.392;7.482;2022-12-18T13:26:38;102005.28;;;-0.02;61.28
4981;BME280;2507;50.392;7.482;2022-12-18T13:29:04;102014.66;;;0.08;61.25
4981;BME280;2507;50.392;7.482;2022-12-18T13:36:42;102002.81;;;-0.31;61.59
4981;BME280;2507;50.392;7.482;2022-12-18T13:41:39;101987.38;;;-0.37;61.60
4981;BME280;2507;50.392;7.482;2022-12-18T13:44:26;101994.22;;;-0.28;62.22
4981;BME280;2507;50.392;7.482;2022-12-18T13:46:54;101984.63;;;-0.04;61.17
4981;BME280;2507;50.392;7.482;2022-12-18T13:49:26;101979.53;;;-0.14;61.05
4981;BME280;2507;50.392;7.482;2022-12-18T13:51:55;101984.75;;;-0.31;61.08
4981;BME280;2507;50.392;7.482;2022-12-18T13:54:28;101983.13;;;-0.48;61.81
4981;BME280;2507;50.392;7.482;2022-12-18T13:56:55;101983.16;;;-0.57;62.22
4981;BME280;2507;50.392;7.482;2022-12-18T13:59:34;101990.84;;;-0.48;62.53
4981;BME280;2507;50.392;7.482;2022-12-18T14:02:11;101990.84;;;-0.47;61.99
4981;BME280;2507;50.392;7.482;2022-12-18T14:04:37;101993.41;;;-0.42;62.03
4981;BME280;2507;50.392;7.482;2022-12-18T14:09:30;101996.84;;;-0.43;61.97
4981;BME280;2507;50.392;7.482;2022-12-18T14:11:57;101992.56;;;-0.44;61.69
4981;BME280;2507;50.392;7.482;2022-12-18T14:14:48;101990.84;;;-0.48;61.78
4981;BME280;2507;50.392;7.482;2022-12-18T14:17:16;101993.38;;;-0.36;62.37
4981;BME280;2507;50.392;7.482;2022-12-18T14:19:47;102000.25;;;-0.32;61.65
4981;BME280;2507;50.392;7.482;2022-12-18T14:22:19;101988.25;;;-0.42;61.52
4981;BME280;2507;50.392;7.482;2022-12-18T14:24:46;101990.81;;;-0.38;61.64
4981;BME280;2507;50.392;7.482;2022-12-18T14:27:24;101988.25;;;-0.47;61.60
4981;BME280;2507;50.392;7.482;2022-12-18T14:29:50;101996.84;;;-0.40;61.57
4981;BME280;2507;50.392;7.482;2022-12-18T14:32:20;101972.78;;;-0.45;61.70
4981;BME280;2507;50.392;7.482;2022-12-18T14:34:50;101988.25;;;-0.45;61.58
4981;BME280;2507;50.392;7.482;2022-12-18T14:37:21;101985.69;;;-0.45;61.63
4981;BME280;2507;50.392;7.482;2022-12-18T14:39:57;101970.22;;;-0.45;61.99
4981;BME280;2507;50.392;7.482;2022-12-18T14:42:24;101971.97;;;-0.53;61.67